Terminal Aerodrome Forecast
Issued by NWS

Home | Current Version | Previous Version | Text Only | Print | Product List | Glossary On
Versions: 1 2 3 4 5 6 7 8 9 10 11 12 13 14 15 16 17 18 19
000
FTUS41 KALY 250546
TAFPSF
TAF
KPSF 250546Z 2506/2606 VRB03KT P6SM BKN120 BKN250
     FM250900 03006KT P6SM VCSH BKN050 OVC080
     FM251300 06008KT 6SM -RA BR OVC025
     FM251700 07010G18KT 4SM -RA BR OVC015
     FM252300 08010G22KT 3SM -RA BR OVC007=

USA.gov is the U.S. government's official web portal to all federal, state and local government web resources and services.